createdAt,value
2022-11-04T00:01:50.587Z,6.25
2022-11-04T00:04:19.970Z,6.55
2022-11-04T00:06:48.098Z,5.55
2022-11-04T00:09:30.653Z,8.35
2022-11-04T00:12:17.096Z,6.60
2022-11-04T00:14:44.492Z,8.27
2022-11-04T00:17:25.255Z,8.25
2022-11-04T00:20:21.479Z,11.10
2022-11-04T00:23:07.805Z,6.95
2022-11-04T00:26:07.751Z,8.63
2022-11-04T00:28:43.716Z,7.88
2022-11-04T00:31:29.502Z,7.22
2022-11-04T00:33:59.283Z,6.88
2022-11-04T00:36:26.918Z,7.03
2022-11-04T00:38:54.518Z,7.03
2022-11-04T00:41:28.327Z,9.18
2022-11-04T00:44:01.935Z,5.68
2022-11-04T00:46:31.773Z,9.15
2022-11-04T00:48:59.666Z,9.73
2022-11-04T00:51:27.143Z,8.98
2022-11-04T00:53:54.787Z,7.25
2022-11-04T00:56:22.096Z,6.60
2022-11-04T00:58:50.321Z,9.52
2022-11-04T01:01:19.524Z,8.63
2022-11-04T01:03:53.187Z,7.32
2022-11-04T01:06:22.895Z,5.05
2022-11-04T01:09:02.519Z,7.73
2022-11-04T01:11:31.399Z,4.60
2022-11-04T01:13:59.130Z,5.50
2022-11-04T01:18:55.427Z,4.75
2022-11-04T01:21:22.598Z,7.30
2022-11-04T01:23:49.798Z,4.93
2022-11-04T01:26:21.226Z,4.35
2022-11-04T01:28:49.475Z,3.92
2022-11-04T01:31:24.300Z,3.67
2022-11-04T01:33:53.739Z,5.70
2022-11-04T01:36:22.128Z,4.40
2022-11-04T01:38:50.411Z,6.20
2022-11-04T01:41:28.800Z,7.32
2022-11-04T01:44:24.230Z,4.45
2022-11-04T01:46:54.068Z,2.85
2022-11-04T01:49:39.166Z,5.72
2022-11-04T01:52:25.990Z,4.53
2022-11-04T01:54:57.606Z,4.40
2022-11-04T01:57:33.542Z,4.90
2022-11-04T02:00:06.317Z,4.88
2022-11-04T02:03:06.343Z,10.70
2022-11-04T02:05:34.307Z,5.03
2022-11-04T02:08:04.716Z,8.05
2022-11-04T02:10:33.366Z,4.95
2022-11-04T02:13:03.737Z,5.32
2022-11-04T02:15:51.979Z,6.35
2022-11-04T02:18:49.244Z,5.93
2022-11-04T02:21:38.032Z,6.10
2022-11-04T02:24:26.332Z,4.95
2022-11-04T02:27:37.038Z,5.28
2022-11-04T02:30:12.403Z,5.07
2022-11-04T02:32:50.380Z,4.05
2022-11-04T02:35:30.793Z,10.40
2022-11-04T02:38:04.057Z,4.72
2022-11-04T02:40:41.656Z,7.50
2022-11-04T02:43:50.293Z,5.38
2022-11-04T02:46:34.680Z,5.18
2022-11-04T02:49:40.555Z,3.83
2022-11-04T02:52:10.563Z,6.13
2022-11-04T02:54:54.957Z,3.72
2022-11-04T02:57:29.030Z,5.78
2022-11-04T03:00:08.729Z,4.85
2022-11-04T03:03:09.884Z,6.27
2022-11-04T03:05:42.470Z,5.45
2022-11-04T03:08:17.404Z,5.15
2022-11-04T03:10:52.790Z,5.07
2022-11-04T03:13:50.255Z,5.00
2022-11-04T03:16:23.900Z,4.90
2022-11-04T03:19:34.704Z,6.40
2022-11-04T03:24:31.907Z,4.68
2022-11-04T03:27:16.562Z,6.68
2022-11-04T03:30:02.429Z,7.80
2022-11-04T03:32:54.629Z,7.47
2022-11-04T03:35:22.004Z,4.28
2022-11-04T03:37:50.224Z,6.35
2022-11-04T03:40:20.996Z,5.85
2022-11-04T03:42:58.767Z,5.97
2022-11-04T03:45:26.992Z,10.45
2022-11-04T03:47:56.104Z,5.78
2022-11-04T03:50:42.078Z,5.60
2022-11-04T03:53:12.448Z,7.65
2022-11-04T03:56:21.636Z,7.55
2022-11-04T03:59:04.697Z,6.97
2022-11-04T04:01:56.134Z,5.68
2022-11-04T04:05:18.846Z,9.07
2022-11-04T04:08:11.946Z,7.72
2022-11-04T04:11:15.758Z,6.40
2022-11-04T04:13:59.476Z,8.15
2022-11-04T04:17:00.529Z,5.65
2022-11-04T04:19:29.215Z,5.32
2022-11-04T04:22:05.156Z,7.63
2022-11-04T04:24:58.636Z,4.85
2022-11-04T04:27:33.672Z,6.35
2022-11-04T04:30:15.933Z,7.15
2022-11-04T04:32:57.890Z,5.93
2022-11-04T04:35:42.522Z,5.13
2022-11-04T04:38:44.461Z,6.45
2022-11-04T04:41:46.575Z,7.38
2022-11-04T04:44:46.629Z,4.50
2022-11-04T04:47:24.880Z,5.55
2022-11-04T04:50:01.120Z,8.43
2022-11-04T04:52:40.207Z,5.63
2022-11-04T04:55:08.805Z,6.95
2022-11-04T04:57:36.338Z,7.32
2022-11-04T05:00:06.706Z,11.52
2022-11-04T05:02:34.411Z,6.15
2022-11-04T05:05:01.886Z,9.48
2022-11-04T05:07:29.134Z,6.45
2022-11-04T05:09:56.572Z,7.70
2022-11-04T05:12:23.965Z,7.25
2022-11-04T05:14:51.149Z,8.65
2022-11-04T05:17:18.346Z,8.25
2022-11-04T05:19:45.651Z,6.47
2022-11-04T05:22:12.846Z,7.53
2022-11-04T05:24:40.028Z,13.68
2022-11-04T05:27:07.236Z,11.15
2022-11-04T05:29:34.498Z,8.32
2022-11-04T05:32:01.871Z,10.50
2022-11-04T05:34:29.261Z,8.98
2022-11-04T05:36:56.466Z,6.35
2022-11-04T05:39:23.689Z,8.93
2022-11-04T05:41:50.832Z,5.63
2022-11-04T05:44:18.055Z,5.47
2022-11-04T05:46:45.249Z,5.70
2022-11-04T05:49:12.570Z,6.97
2022-11-04T05:51:39.845Z,9.85
2022-11-04T05:54:07.055Z,7.38
2022-11-04T05:56:34.262Z,8.57
2022-11-04T05:59:01.600Z,12.15
2022-11-04T06:01:33.441Z,7.03
2022-11-04T06:04:02.090Z,6.05
2022-11-04T06:06:36.896Z,7.53
2022-11-04T06:09:04.448Z,7.63
2022-11-04T06:11:32.972Z,9.13
2022-11-04T06:14:00.710Z,11.90
2022-11-04T06:16:28.303Z,6.45
2022-11-04T06:18:56.867Z,8.57
2022-11-04T06:21:32.503Z,9.18
2022-11-04T06:24:00.884Z,5.47
2022-11-04T06:26:30.961Z,10.25
2022-11-04T06:28:58.505Z,8.13
2022-11-04T06:31:25.995Z,7.80
2022-11-04T06:33:53.323Z,7.45
2022-11-04T06:36:20.552Z,10.00
2022-11-04T06:38:47.793Z,11.13
2022-11-04T06:41:17.706Z,5.65
2022-11-04T06:43:45.521Z,12.23
2022-11-04T06:46:37.229Z,11.20
2022-11-04T06:49:06.934Z,13.93
2022-11-04T06:51:34.576Z,8.27
2022-11-04T06:54:02.067Z,9.80
2022-11-04T06:56:29.335Z,10.50
2022-11-04T06:58:56.893Z,8.90
2022-11-04T07:01:28.963Z,7.38
2022-11-04T07:03:59.702Z,10.75
2022-11-04T07:09:00.918Z,7.25
2022-11-04T07:11:31.564Z,6.55
2022-11-04T07:16:26.840Z,9.02
2022-11-04T07:18:57.056Z,7.00
2022-11-04T07:21:24.464Z,6.78
2022-11-04T07:23:51.731Z,10.35
2022-11-04T07:26:19.547Z,10.32
2022-11-04T07:28:46.731Z,6.63
2022-11-04T07:31:14.839Z,7.82
2022-11-04T07:33:42.372Z,10.07
2022-11-04T07:36:13.184Z,8.18
2022-11-04T07:38:40.619Z,9.13
2022-11-04T07:41:08.453Z,11.40
2022-11-04T07:43:35.843Z,9.65
2022-11-04T07:46:13.143Z,10.52
2022-11-04T07:48:40.525Z,8.18
2022-11-04T07:51:12.798Z,7.93
2022-11-04T07:53:40.380Z,12.35
2022-11-04T07:56:13.725Z,10.02
2022-11-04T07:58:41.826Z,15.70
2022-11-04T08:01:13.616Z,12.00
2022-11-04T08:03:41.274Z,7.80
2022-11-04T08:06:11.602Z,9.05
2022-11-04T08:08:39.316Z,8.90
2022-11-04T08:11:18.136Z,9.40
2022-11-04T08:13:47.098Z,8.68
2022-11-04T08:16:20.462Z,10.25
2022-11-04T08:18:49.410Z,11.68
2022-11-04T08:21:17.633Z,9.55
2022-11-04T08:23:46.297Z,10.68
2022-11-04T08:26:17.955Z,9.57
2022-11-04T08:28:45.897Z,17.10
2022-11-04T08:31:24.319Z,10.35
2022-11-04T08:33:53.278Z,12.10
2022-11-04T08:36:31.097Z,11.55
2022-11-04T08:38:58.850Z,9.52
2022-11-04T08:41:30.945Z,10.43
2022-11-04T08:44:01.030Z,8.32
2022-11-04T08:46:32.220Z,9.70
2022-11-04T08:48:59.524Z,10.23
2022-11-04T08:51:28.379Z,11.80
2022-11-04T08:53:56.481Z,12.45
2022-11-04T08:56:31.191Z,12.18
2022-11-04T08:58:59.923Z,11.85
2022-11-04T09:01:32.795Z,10.30
2022-11-04T09:04:03.426Z,9.02
2022-11-04T09:06:37.997Z,9.13
2022-11-04T09:09:08.283Z,12.02
2022-11-04T09:11:41.116Z,9.90
2022-11-04T09:14:09.091Z,11.25
2022-11-04T09:16:38.401Z,9.50
2022-11-04T09:19:06.038Z,11.60
2022-11-04T09:21:33.543Z,9.07
2022-11-04T09:24:00.827Z,8.27
2022-11-04T09:26:28.548Z,12.00
2022-11-04T09:28:58.857Z,13.32
2022-11-04T09:31:29.406Z,11.57
2022-11-04T09:36:24.553Z,9.60
2022-11-04T09:38:52.752Z,15.10
2022-11-04T09:41:55.789Z,10.65
2022-11-04T09:45:22.945Z,10.27
2022-11-04T09:47:53.157Z,11.20
2022-11-04T09:50:31.563Z,9.07
2022-11-04T09:53:19.699Z,8.65
2022-11-04T09:56:04.078Z,9.98
2022-11-04T09:58:38.105Z,11.65
2022-11-04T10:01:30.628Z,8.63
2022-11-04T10:04:01.510Z,12.52
2022-11-04T10:06:57.992Z,9.02
2022-11-04T10:09:40.007Z,11.65
2022-11-04T10:12:34.421Z,10.77
2022-11-04T10:15:26.732Z,10.93
2022-11-04T10:18:16.158Z,7.65
2022-11-04T10:21:18.849Z,8.88
2022-11-04T10:24:15.174Z,10.85
2022-11-04T10:27:01.219Z,9.43
2022-11-04T10:29:43.094Z,7.85
2022-11-04T10:32:25.877Z,9.23
2022-11-04T10:35:18.735Z,12.05
2022-11-04T10:37:51.448Z,13.93
2022-11-04T10:40:36.650Z,17.08
2022-11-04T10:43:11.164Z,10.27
2022-11-04T10:45:55.903Z,20.48
2022-11-04T10:48:37.053Z,11.38
2022-11-04T10:51:05.672Z,11.13
2022-11-04T10:53:34.034Z,11.90
2022-11-04T10:56:25.401Z,10.57
2022-11-04T10:58:55.277Z,9.48
2022-11-04T11:01:34.107Z,10.85
2022-11-04T11:04:06.201Z,11.70
2022-11-04T11:06:36.853Z,11.02
2022-11-04T11:09:29.681Z,12.52
2022-11-04T11:12:44.695Z,13.00
2022-11-04T11:15:23.871Z,9.07
2022-11-04T11:17:59.827Z,10.57
2022-11-04T11:20:27.350Z,11.73
2022-11-04T11:22:58.199Z,10.82
2022-11-04T11:25:31.082Z,13.18
2022-11-04T11:28:11.670Z,9.43
2022-11-04T11:33:35.672Z,14.73
2022-11-04T11:36:15.316Z,11.97
2022-11-04T11:38:53.898Z,9.97
2022-11-04T11:41:25.565Z,9.70
2022-11-04T11:43:56.004Z,15.27
2022-11-04T11:46:31.435Z,11.98
2022-11-04T11:49:02.915Z,9.40
2022-11-04T11:51:33.743Z,10.18
2022-11-04T11:54:25.458Z,16.52
2022-11-04T11:57:19.637Z,14.82
2022-11-04T12:02:55.374Z,10.45
2022-11-04T12:11:44.909Z,11.75
2022-11-04T12:14:18.490Z,11.05
2022-11-04T12:17:19.267Z,11.75
2022-11-04T12:23:32.003Z,13.95
2022-11-04T12:26:51.281Z,15.38
2022-11-04T12:29:27.462Z,13.20
2022-11-04T12:32:10.320Z,15.93
2022-11-04T12:35:10.204Z,13.13
2022-11-04T12:37:59.311Z,18.00
2022-11-04T12:40:59.387Z,13.30
2022-11-04T12:43:57.499Z,12.63
2022-11-04T12:47:09.478Z,13.25
2022-11-04T12:50:00.812Z,13.32
2022-11-04T12:52:50.810Z,12.35
2022-11-04T12:55:43.883Z,13.30
2022-11-04T12:58:29.025Z,17.50
2022-11-04T13:01:10.961Z,17.08
2022-11-04T13:04:06.715Z,14.07
2022-11-04T13:07:00.745Z,12.98
2022-11-04T13:09:50.946Z,13.32
2022-11-04T13:12:45.721Z,14.65
2022-11-04T13:15:17.996Z,15.75
2022-11-04T13:17:49.381Z,16.08
2022-11-04T13:20:44.956Z,11.57
2022-11-04T13:23:25.035Z,13.63
2022-11-04T13:25:53.817Z,15.43
2022-11-04T13:28:23.044Z,12.90
2022-11-04T13:31:31.689Z,10.02
2022-11-04T13:34:33.585Z,9.80
2022-11-04T13:37:12.947Z,22.73
2022-11-04T13:39:48.977Z,8.82
2022-11-04T13:43:22.273Z,10.43
2022-11-04T13:45:54.013Z,11.75
2022-11-04T13:48:26.792Z,9.27
2022-11-04T13:51:10.425Z,10.48
2022-11-04T13:53:49.071Z,13.57
2022-11-04T13:56:39.633Z,13.65
2022-11-04T13:59:26.865Z,13.13
2022-11-04T14:02:12.532Z,15.50
2022-11-04T14:04:45.509Z,11.60
2022-11-04T14:07:17.914Z,5.82
2022-11-04T14:09:45.044Z,4.22
2022-11-04T14:12:16.957Z,7.85
2022-11-04T14:14:53.606Z,7.63
2022-11-04T14:17:36.013Z,8.85
2022-11-04T14:20:08.465Z,7.90
2022-11-04T14:22:44.446Z,8.10
2022-11-04T14:25:40.543Z,7.50
2022-11-04T14:28:10.774Z,6.80
2022-11-04T14:31:05.079Z,6.78
2022-11-04T14:33:37.948Z,7.43
2022-11-04T14:36:23.856Z,8.27
2022-11-04T14:39:11.874Z,5.95
2022-11-04T14:42:00.055Z,6.78
2022-11-04T14:44:41.732Z,6.65
2022-11-04T14:47:30.998Z,10.65
2022-11-04T14:50:07.777Z,7.60
2022-11-04T14:52:48.372Z,7.97
2022-11-04T14:55:29.746Z,9.18
2022-11-04T14:58:18.625Z,7.82
2022-11-04T15:00:48.904Z,7.97
2022-11-04T15:06:53.542Z,9.85
2022-11-04T15:09:30.769Z,11.43
2022-11-04T15:14:57.517Z,10.82
2022-11-04T15:17:30.187Z,9.18
2022-11-04T15:20:01.581Z,12.07
2022-11-04T15:22:30.547Z,11.15
2022-11-04T15:25:04.308Z,10.07
2022-11-04T15:27:33.661Z,10.85
2022-11-04T15:30:04.146Z,18.70
2022-11-04T15:34:59.923Z,13.73
2022-11-04T15:37:30.934Z,10.50
2022-11-04T15:39:59.166Z,11.45
2022-11-04T15:42:37.093Z,14.23
2022-11-04T15:45:39.209Z,7.57
2022-11-04T15:48:25.060Z,9.15
2022-11-04T15:51:22.257Z,9.18
2022-11-04T15:54:30.719Z,8.25
2022-11-04T15:57:03.014Z,8.57
2022-11-04T15:59:34.626Z,8.02
2022-11-04T16:02:05.800Z,8.40
2022-11-04T16:04:34.010Z,7.65
2022-11-04T16:07:21.982Z,7.07
2022-11-04T16:09:54.254Z,6.82
2022-11-04T16:12:27.027Z,6.97
2022-11-04T16:14:57.572Z,8.70
2022-11-04T16:20:02.038Z,8.77
2022-11-04T16:22:40.701Z,9.32
2022-11-04T16:25:19.887Z,12.38
2022-11-04T16:27:47.436Z,12.18
2022-11-04T16:30:22.990Z,18.90
2022-11-04T16:32:55.255Z,15.57
2022-11-04T16:35:28.268Z,12.70
2022-11-04T16:37:56.709Z,11.88
2022-11-04T16:40:25.238Z,9.88
2022-11-04T16:42:53.927Z,12.13
2022-11-04T16:45:30.282Z,11.05
2022-11-04T16:47:58.908Z,11.23
2022-11-04T16:50:27.303Z,10.10
2022-11-04T16:52:54.938Z,10.73
2022-11-04T16:55:23.657Z,10.93
2022-11-04T16:58:00.902Z,9.55
2022-11-04T17:00:32.996Z,8.20
2022-11-04T17:03:21.714Z,11.77
2022-11-04T17:05:56.548Z,8.60
2022-11-04T17:08:27.894Z,9.93
2022-11-04T17:10:55.145Z,7.95
2022-11-04T17:13:22.539Z,8.20
2022-11-04T17:15:49.902Z,11.35
2022-11-04T17:18:18.908Z,12.20
2022-11-04T17:20:50.011Z,12.05
2022-11-04T17:23:18.715Z,10.98
2022-11-04T17:25:47.900Z,9.65
2022-11-04T17:28:15.526Z,16.48
2022-11-04T17:30:44.225Z,13.00
2022-11-04T17:33:19.176Z,9.90
2022-11-04T17:35:49.580Z,13.43
2022-11-04T17:38:18.446Z,12.68
2022-11-04T17:41:04.788Z,10.38
2022-11-04T17:43:52.421Z,13.48
2022-11-04T17:46:35.203Z,10.25
2022-11-04T17:49:11.610Z,12.32
2022-11-04T17:51:41.456Z,11.18
2022-11-04T17:54:09.640Z,14.52
2022-11-04T17:56:38.535Z,12.07
2022-11-04T17:59:06.420Z,10.45
2022-11-04T18:01:35.621Z,14.18
2022-11-04T18:04:03.669Z,13.75
2022-11-04T18:06:33.676Z,11.55
2022-11-04T18:09:01.834Z,13.60
2022-11-04T18:11:48.897Z,11.85
2022-11-04T18:14:17.824Z,10.85
2022-11-04T18:16:48.302Z,16.80
2022-11-04T18:19:18.397Z,12.40
2022-11-04T18:21:46.422Z,14.70
2022-11-04T18:24:14.895Z,15.18
2022-11-04T18:26:42.946Z,15.23
2022-11-04T18:29:10.365Z,18.88
2022-11-04T18:31:44.632Z,18.15
2022-11-04T18:34:19.515Z,16.20
2022-11-04T18:36:49.002Z,16.00
2022-11-04T18:39:18.877Z,19.13
2022-11-04T18:41:46.952Z,22.23
2022-11-04T18:44:21.253Z,17.58
2022-11-04T18:46:49.933Z,13.95
2022-11-04T18:49:18.335Z,15.65
2022-11-04T18:51:45.751Z,15.40
2022-11-04T18:54:14.865Z,14.57
2022-11-04T18:56:42.871Z,20.10
2022-11-04T18:59:15.551Z,15.73
2022-11-04T19:01:43.955Z,14.07
2022-11-04T19:04:13.176Z,17.02
2022-11-04T19:06:43.226Z,17.38
2022-11-04T19:09:44.829Z,16.13
2022-11-04T19:12:19.604Z,16.90
2022-11-04T19:14:46.835Z,18.08
2022-11-04T19:17:14.161Z,16.30
2022-11-04T19:19:41.740Z,19.33
2022-11-04T19:22:09.624Z,13.52
2022-11-04T19:24:37.036Z,14.00
2022-11-04T19:27:04.610Z,6.07
2022-11-04T19:29:33.112Z,5.18
2022-11-04T19:32:00.870Z,4.95
2022-11-04T19:34:28.472Z,4.15
2022-11-04T19:36:55.862Z,5.05
2022-11-04T19:39:23.332Z,2.97
2022-11-04T19:42:09.475Z,4.00
2022-11-04T19:44:36.875Z,3.25
2022-11-04T19:47:04.207Z,3.13
2022-11-04T19:49:31.694Z,2.67
2022-11-04T19:52:00.075Z,3.58
2022-11-04T19:54:28.514Z,2.63
2022-11-04T19:56:55.994Z,3.10
2022-11-04T19:59:23.199Z,3.33
2022-11-04T20:01:50.817Z,3.38
2022-11-04T20:04:18.530Z,3.65
2022-11-04T20:06:45.841Z,1.75
2022-11-04T20:09:13.534Z,2.88
2022-11-04T20:12:00.397Z,2.05
2022-11-04T20:14:28.939Z,2.88
2022-11-04T20:16:56.650Z,3.75
2022-11-04T20:19:23.977Z,2.00
2022-11-04T20:21:51.388Z,3.17
2022-11-04T20:24:19.210Z,2.45
2022-11-04T20:26:47.642Z,2.55
2022-11-04T20:29:17.938Z,3.33
2022-11-04T20:31:45.652Z,3.92
2022-11-04T20:34:15.052Z,4.25
2022-11-04T20:36:42.806Z,4.82
2022-11-04T20:39:17.573Z,3.72
2022-11-04T20:41:46.310Z,2.95
2022-11-04T20:44:15.809Z,3.08
2022-11-04T20:46:44.405Z,3.40
2022-11-04T20:49:12.383Z,2.60
2022-11-04T20:51:48.770Z,4.43
2022-11-04T20:54:18.129Z,5.68
2022-11-04T20:56:45.715Z,2.85
2022-11-04T20:59:14.157Z,3.28
2022-11-04T21:01:45.152Z,6.05
2022-11-04T21:04:18.275Z,4.68
2022-11-04T21:06:49.662Z,3.13
2022-11-04T21:09:20.093Z,3.45
2022-11-04T21:11:48.141Z,4.43
2022-11-04T21:14:19.433Z,4.45
2022-11-04T21:16:47.610Z,5.65
2022-11-04T21:19:16.290Z,3.80
2022-11-04T21:21:44.899Z,4.05
2022-11-04T21:24:14.897Z,9.30
2022-11-04T21:26:42.751Z,9.75
2022-11-04T21:29:14.889Z,13.27
2022-11-04T21:31:43.082Z,10.38
2022-11-04T21:34:10.875Z,13.25
2022-11-04T21:36:38.471Z,9.70
2022-11-04T21:39:06.589Z,11.70
2022-11-04T21:41:37.129Z,10.02
2022-11-04T21:44:08.685Z,10.93
2022-11-04T21:46:36.715Z,7.32
2022-11-04T21:49:04.574Z,10.23
2022-11-04T21:51:34.565Z,9.38
2022-11-04T21:54:06.846Z,7.35
2022-11-04T21:56:35.045Z,8.48
2022-11-04T21:59:03.398Z,7.57
2022-11-04T22:01:32.632Z,5.63
2022-11-04T22:04:02.262Z,11.20
2022-11-04T22:06:34.525Z,15.07
2022-11-04T22:09:05.432Z,12.05
2022-11-04T22:11:37.327Z,11.20
2022-11-04T22:14:08.237Z,8.93
2022-11-04T22:16:39.040Z,8.70
2022-11-04T22:19:10.418Z,7.95
2022-11-04T22:21:41.244Z,8.98
2022-11-04T22:24:17.902Z,5.60
2022-11-04T22:26:46.170Z,3.80
2022-11-04T22:29:13.442Z,4.45
2022-11-04T22:31:43.174Z,3.20
2022-11-04T22:34:10.562Z,2.88
2022-11-04T22:36:38.356Z,1.80
2022-11-04T22:39:05.783Z,2.33
2022-11-04T22:41:35.661Z,1.85
2022-11-04T22:44:03.625Z,2.75
2022-11-04T22:46:33.797Z,3.28
2022-11-04T22:49:01.440Z,1.30
2022-11-04T22:51:31.331Z,2.55
2022-11-04T22:54:04.571Z,2.15
2022-11-04T22:56:34.173Z,1.75
2022-11-04T22:59:01.527Z,1.55
2022-11-04T23:01:29.371Z,1.30
2022-11-04T23:03:57.735Z,1.55
2022-11-04T23:06:25.144Z,1.00
2022-11-04T23:08:59.534Z,1.20
2022-11-04T23:11:47.354Z,2.22
2022-11-04T23:14:36.216Z,1.05
2022-11-04T23:17:37.815Z,1.30
2022-11-04T23:20:09.451Z,1.20
2022-11-04T23:22:55.393Z,0.80
2022-11-04T23:25:23.214Z,1.13
2022-11-04T23:28:12.868Z,0.93
2022-11-04T23:30:46.515Z,1.07
2022-11-04T23:33:15.739Z,1.15
2022-11-04T23:36:07.674Z,0.73
2022-11-04T23:38:38.415Z,0.88
2022-11-04T23:43:53.005Z,1.38
2022-11-04T23:46:43.113Z,1.67
2022-11-04T23:49:30.791Z,3.22
2022-11-04T23:52:16.595Z,2.55
2022-11-04T23:55:02.521Z,1.88
2022-11-04T23:57:48.647Z,2.03
